Time;durP1;ratioP1;P1;durP2;ratioP2;P2;SDS_P1;SDS_P2;PMS_P1;PMS_P2;Temp;Humidity;BMP_temperature;BMP_pressure;BME280_temperature;BME280_humidity;BME280_pressure;Samples;Min_cycle;Max_cycle;Signal;HPM_P1;HPM_P2
2023/06/15 00:01:16;;;;;;;23.57;21.00;;;;;;;-143.84;95.22;43870.59;5088727;28;20444;-56
2023/06/15 00:03:43;;;;;;;21.90;18.83;;;;;;;-143.84;95.31;43861.06;5088821;28;20525;-56
2023/06/15 00:06:10;;;;;;;19.77;17.73;;;;;;;-143.84;95.61;43845.84;5089969;28;20448;-56
2023/06/15 00:08:38;;;;;;;27.83;17.87;;;;;;;-143.84;95.85;43836.34;5093015;28;21082;-56
2023/06/15 00:11:05;;;;;;;19.77;17.70;;;;;;;-143.84;95.87;43779.22;5092720;28;20510;-56
2023/06/15 00:13:32;;;;;;;18.23;16.33;;;;;;;-143.84;95.58;43811.59;5093004;28;20446;-56
2023/06/15 00:15:59;;;;;;;17.60;15.80;;;;;;;-143.84;95.05;43876.31;5092424;28;20496;-56
2023/06/15 00:18:28;;;;;;;18.43;16.17;;;;;;;-143.84;95.07;43885.81;5092747;28;20504;-56
2023/06/15 00:20:55;;;;;;;16.53;14.87;;;;;;;-143.84;95.28;43838.25;5092508;28;20439;-56
2023/06/15 00:23:26;;;;;;;17.63;14.50;;;;;;;-143.84;94.84;43899.16;5092747;28;20475;-56
2023/06/15 00:25:53;;;;;;;15.80;14.20;;;;;;;-143.84;94.79;43897.25;5092879;28;20439;-56
2023/06/15 00:28:21;;;;;;;19.40;15.20;;;;;;;-143.84;94.87;43885.81;5092825;28;20440;-56
2023/06/15 00:30:48;;;;;;;17.33;15.63;;;;;;;-143.84;94.69;43956.25;5092657;28;20430;-56
2023/06/15 00:33:15;;;;;;;17.27;15.53;;;;;;;-143.84;94.56;43899.16;5092698;28;20619;-56
2023/06/15 00:35:44;;;;;;;22.53;17.27;;;;;;;-143.84;94.62;43912.47;5092234;28;20489;-56
2023/06/15 00:38:11;;;;;;;21.20;16.63;;;;;;;-143.84;95.02;43870.59;5092363;28;20443;-56
2023/06/15 00:40:39;;;;;;;20.53;17.27;;;;;;;-143.84;95.47;43838.25;5092344;28;20435;-56
2023/06/15 00:43:06;;;;;;;20.53;16.90;;;;;;;-143.84;95.69;43840.13;5092344;28;20471;-56
2023/06/15 00:45:33;;;;;;;25.20;17.30;;;;;;;-143.84;95.88;43798.25;5092649;28;20485;-56
2023/06/15 00:48:01;;;;;;;22.73;16.57;;;;;;;-143.84;95.93;43792.56;5092048;28;20435;-56
2023/06/15 00:50:30;;;;;;;23.80;17.37;;;;;;;-143.84;95.82;43800.16;5091929;28;20460;-56
2023/06/15 00:53:03;;;;;;;19.20;15.87;;;;;;;-143.84;95.57;43830.63;5091821;28;20437;-56
2023/06/15 00:55:32;;;;;;;15.90;13.57;;;;;;;-143.84;95.59;43802.06;5091884;28;20574;-56
2023/06/15 00:58:00;;;;;;;24.20;14.10;;;;;;;-143.84;95.60;43843.94;5092093;28;20797;-56
2023/06/15 01:00:27;;;;;;;17.43;12.70;;;;;;;-143.84;95.04;43855.38;5091831;28;20965;-56
2023/06/15 01:02:56;;;;;;;21.07;12.43;;;;;;;-143.84;94.76;43859.19;5092025;28;20447;-56
2023/06/15 01:05:24;;;;;;;12.60;11.27;;;;;;;-143.84;94.30;43958.16;5091899;28;20452;-56
2023/06/15 01:07:53;;;;;;;13.07;10.70;;;;;;;-143.84;93.85;44009.56;5091836;28;20539;-56
2023/06/15 01:10:24;;;;;;;11.30;10.20;;;;;;;-143.84;93.75;44038.09;5091923;28;20436;-56
2023/06/15 01:12:54;;;;;;;11.30;10.10;;;;;;;-143.84;93.51;44102.84;5091559;28;20437;-56
2023/06/15 01:15:22;;;;;;;10.33;9.30;;;;;;;-143.84;93.11;44169.47;5091215;28;20496;-56
2023/06/15 01:17:53;;;;;;;10.57;9.50;;;;;;;-143.84;92.60;44306.53;5090417;28;20442;-56
2023/06/15 01:20:24;;;;;;;9.20;8.40;;;;;;;-143.84;92.28;44435.97;5091590;28;21234;-56
2023/06/15 01:22:59;;;;;;;11.30;9.40;;;;;;;-143.84;92.26;44451.22;5091163;28;20510;-56
2023/06/15 01:25:37;;;;;;;10.40;8.03;;;;;;;-143.84;91.67;44519.75;5091124;28;20871;-56
2023/06/15 01:28:07;;;;;;;13.37;9.73;;;;;;;-143.84;91.42;44607.34;5091059;28;20504;-56
2023/06/15 01:30:39;;;;;;;10.73;9.27;;;;;;;-143.84;91.40;44630.19;5091095;28;20544;-56
2023/06/15 01:33:06;;;;;;;9.57;8.67;;;;;;;-143.84;91.18;44662.53;5091168;28;20448;-56
2023/06/15 01:35:33;;;;;;;9.47;8.57;;;;;;;-143.84;90.99;44673.97;5091435;28;20471;-56
2023/06/15 01:38:00;;;;;;;11.83;9.80;;;;;;;-143.84;90.69;44736.81;5091215;28;20648;-56
2023/06/15 01:40:28;;;;;;;10.70;9.67;;;;;;;-143.84;90.20;44805.34;5090984;28;20440;-56
2023/06/15 01:42:58;;;;;;;13.93;7.83;;;;;;;-143.84;89.89;44856.75;5091191;28;20521;-56
2023/06/15 01:45:28;;;;;;;12.40;9.47;;;;;;;-143.84;89.99;44830.09;5091181;28;20512;-56
2023/06/15 01:47:56;;;;;;;9.20;8.30;;;;;;;-143.84;90.00;44824.38;5090912;28;20451;-56
2023/06/15 01:50:24;;;;;;;11.23;8.50;;;;;;;-143.84;90.23;44818.66;5090874;28;20432;-56
2023/06/15 01:52:52;;;;;;;9.33;8.63;;;;;;;-143.84;90.13;44828.19;5090799;28;20515;-56
2023/06/15 01:55:19;;;;;;;9.23;8.20;;;;;;;-143.84;90.29;44812.97;5090721;28;20890;-56
2023/06/15 01:57:48;;;;;;;8.40;7.70;;;;;;;-143.84;90.38;44784.41;5090832;28;20442;-56
2023/06/15 02:00:15;;;;;;;9.90;7.70;;;;;;;-143.84;90.33;44801.53;5090708;28;20440;-56
2023/06/15 02:02:44;;;;;;;7.80;7.03;;;;;;;-143.84;90.38;44807.25;5090491;28;20448;-56
2023/06/15 02:05:11;;;;;;;9.67;8.77;;;;;;;-143.84;90.22;44793.91;5090512;28;20456;-56
2023/06/15 02:07:39;;;;;;;13.60;8.13;;;;;;;-143.84;90.11;44824.38;5090299;28;20889;-56
2023/06/15 02:10:07;;;;;;;10.50;8.87;;;;;;;-143.84;90.04;44847.22;5090547;28;20446;-56
2023/06/15 02:12:35;;;;;;;8.77;7.63;;;;;;;-143.84;90.92;44759.66;5090558;28;20439;-56
2023/06/15 02:15:02;;;;;;;13.13;8.03;;;;;;;-143.84;91.06;44761.56;5090303;28;20510;-56
2023/06/15 02:17:30;;;;;;;13.97;8.70;;;;;;;-143.84;90.92;44776.78;5090116;28;20440;-57
2023/06/15 02:19:59;;;;;;;9.17;8.37;;;;;;;-143.84;90.89;44774.88;5090319;28;20444;-56
2023/06/15 02:22:26;;;;;;;10.50;9.37;;;;;;;-143.84;91.23;44713.94;5090413;28;20446;-56
2023/06/15 02:24:53;;;;;;;11.00;9.10;;;;;;;-143.84;91.37;44744.41;5090383;28;21252;-56
2023/06/15 02:27:20;;;;;;;10.13;9.10;;;;;;;-143.84;91.58;44733.00;5090485;28;20513;-56
2023/06/15 02:29:47;;;;;;;9.63;8.87;;;;;;;-143.84;91.46;44702.53;5089920;28;20462;-56
2023/06/15 02:32:31;;;;;;;12.40;8.90;;;;;;;-143.84;91.52;44715.84;5090244;28;20446;-56
2023/06/15 02:35:00;;;;;;;10.77;9.80;;;;;;;-143.84;91.42;44740.59;5089809;28;20997;-56
2023/06/15 02:37:27;;;;;;;9.67;8.70;;;;;;;-143.84;91.42;44748.22;5089983;28;20445;-56
2023/06/15 02:39:55;;;;;;;10.53;9.47;;;;;;;-143.84;91.38;44744.41;5089648;28;21016;-56
2023/06/15 02:42:22;;;;;;;9.93;9.03;;;;;;;-143.84;91.15;44772.97;5090279;28;20596;-56
2023/06/15 02:44:49;;;;;;;12.77;9.87;;;;;;;-143.84;91.24;44744.41;5089919;28;20838;-56
2023/06/15 02:47:16;;;;;;;11.60;9.33;;;;;;;-143.84;91.27;44759.66;5089843;28;20459;-56
2023/06/15 02:49:43;;;;;;;12.73;10.20;;;;;;;-143.84;91.28;44740.59;5089625;28;20921;-56
2023/06/15 02:52:12;;;;;;;9.50;8.70;;;;;;;-143.84;91.17;44748.22;5089934;28;20444;-56
2023/06/15 02:54:39;;;;;;;9.97;9.10;;;;;;;-143.84;91.26;44723.47;5090003;28;20960;-56
2023/06/15 02:57:07;;;;;;;13.97;9.27;;;;;;;-143.84;91.42;44729.19;5089914;28;20510;-56
2023/06/15 02:59:34;;;;;;;10.87;9.77;;;;;;;-143.84;91.46;44757.75;5089521;28;20468;-56
2023/06/15 03:02:04;;;;;;;19.43;9.67;;;;;;;-143.84;91.38;44727.28;5089561;28;20454;-56
2023/06/15 03:04:32;;;;;;;10.40;9.37;;;;;;;-143.84;91.38;44736.81;5089617;28;20443;-56
2023/06/15 03:07:00;;;;;;;12.90;8.60;;;;;;;-143.84;91.34;44723.47;5089311;28;20448;-56
2023/06/15 03:09:28;;;;;;;10.23;8.80;;;;;;;-143.84;91.41;44721.56;5089440;28;20439;-56
2023/06/15 03:11:55;;;;;;;8.80;7.90;;;;;;;-143.84;91.32;44740.59;5089322;28;20499;-56
2023/06/15 03:14:23;;;;;;;11.10;8.77;;;;;;;-143.84;91.41;44752.03;5088947;28;20505;-56
2023/06/15 03:16:51;;;;;;;12.10;8.13;;;;;;;-143.84;91.38;44744.41;5089108;28;20476;-56
2023/06/15 03:19:18;;;;;;;9.50;8.23;;;;;;;-143.84;91.52;44687.28;5089055;28;20440;-56
2023/06/15 03:21:47;;;;;;;14.10;8.20;;;;;;;-143.84;91.48;44717.75;5088858;28;20447;-56
2023/06/15 03:24:16;;;;;;;8.10;7.50;;;;;;;-143.84;91.40;44689.19;5088983;28;20939;-56
2023/06/15 03:26:44;;;;;;;9.17;8.37;;;;;;;-143.84;91.54;44694.91;5089045;28;20524;-57
2023/06/15 03:29:13;;;;;;;14.70;8.67;;;;;;;-143.84;91.55;44681.59;5089446;28;20505;-57
2023/06/15 03:31:41;;;;;;;7.80;7.20;;;;;;;-143.84;91.46;44673.97;5089133;28;20532;-56
2023/06/15 03:34:08;;;;;;;11.73;8.53;;;;;;;-143.84;90.57;44729.19;5089126;28;20436;-56
2023/06/15 03:36:36;;;;;;;7.30;6.60;;;;;;;-143.84;88.25;44851.03;5089061;28;20540;-57
2023/06/15 03:39:03;;;;;;;7.90;7.10;;;;;;;-143.84;85.05;44971.00;5088969;28;20506;-56
2023/06/15 03:41:31;;;;;;;9.30;6.40;;;;;;;-143.84;81.42;45030.03;5088326;28;20539;-56
2023/06/15 03:44:00;;;;;;;6.83;6.27;;;;;;;-143.84;79.38;45018.59;5089169;28;20438;-56
2023/06/15 03:46:27;;;;;;;38.37;6.93;;;;;;;-143.84;76.56;45018.59;5089307;28;20453;-56
2023/06/15 03:48:55;;;;;;;7.30;6.27;;;;;;;-143.84;73.07;45056.69;5089120;28;20433;-56
2023/06/15 03:51:22;;;;;;;9.30;6.70;;;;;;;-143.84;71.41;45035.75;5089121;28;20453;-56
2023/06/15 03:53:49;;;;;;;6.97;6.37;;;;;;;-143.84;71.54;45054.78;5089106;28;20453;-57
2023/06/15 03:56:16;;;;;;;9.77;6.23;;;;;;;-143.84;71.05;45075.72;5089015;28;20479;-56
2023/06/15 03:58:43;;;;;;;6.60;5.97;;;;;;;-143.84;70.26;45041.44;5089042;28;20526;-56
2023/06/15 04:01:12;;;;;;;7.73;6.13;;;;;;;-143.84;70.37;45070.00;5088767;28;20460;-56
2023/06/15 04:03:40;;;;;;;6.77;6.10;;;;;;;-143.84;68.80;45071.91;5088863;28;20447;-57
2023/06/15 04:06:07;;;;;;;14.30;6.60;;;;;;;-143.84;69.09;45056.69;5089000;28;20453;-57
2023/06/15 04:08:35;;;;;;;8.53;6.80;;;;;;;-143.84;69.08;45041.44;5088821;28;20538;-57
2023/06/15 04:11:02;;;;;;;6.90;6.20;;;;;;;-143.84;67.16;45041.44;5088614;28;20458;-57
2023/06/15 04:13:30;;;;;;;10.37;6.80;;;;;;;-143.84;64.54;45056.69;5088869;28;20449;-57
2023/06/15 04:15:57;;;;;;;8.60;6.90;;;;;;;-143.84;63.82;45049.06;5088324;28;20989;-57
2023/06/15 04:18:25;;;;;;;7.10;6.40;;;;;;;-143.84;62.61;45077.63;5088574;28;20452;-57
2023/06/15 04:20:53;;;;;;;6.30;5.70;;;;;;;-143.84;61.84;45060.50;5088771;28;20448;-57
2023/06/15 04:23:21;;;;;;;12.97;7.20;;;;;;;-143.84;61.44;45026.22;5088693;28;20800;-57
2023/06/15 04:25:48;;;;;;;7.53;6.70;;;;;;;-143.84;60.85;45049.06;5088847;28;20509;-57
2023/06/15 04:28:16;;;;;;;7.80;6.60;;;;;;;-143.84;61.18;45026.22;5088622;28;20459;-57
2023/06/15 04:30:46;;;;;;;7.90;7.10;;;;;;;-143.84;61.69;45024.31;5088449;28;20468;-57
2023/06/15 04:33:13;;;;;;;9.03;7.90;;;;;;;-143.84;62.21;45007.19;5088283;28;20926;-57
2023/06/15 04:35:45;;;;;;;9.70;8.70;;;;;;;-143.84;62.57;45022.41;5088145;28;20438;-57
2023/06/15 04:38:12;;;;;;;11.57;8.90;;;;;;;-143.84;63.57;45018.59;5088758;28;20448;-57
2023/06/15 04:40:41;;;;;;;11.20;9.30;;;;;;;-143.84;63.12;45030.03;5088702;28;20468;-57
2023/06/15 04:43:08;;;;;;;12.13;9.07;;;;;;;-143.84;62.14;45030.03;5088778;28;21246;-57
2023/06/15 04:45:36;;;;;;;18.17;8.53;;;;;;;-143.84;62.77;45018.59;5088633;28;20499;-57
2023/06/15 04:48:03;;;;;;;10.37;9.37;;;;;;;-143.84;61.63;45014.78;5088411;28;20440;-57
2023/06/15 04:50:31;;;;;;;12.83;8.80;;;;;;;-143.84;61.78;45016.69;5088669;28;20433;-57
2023/06/15 04:52:59;;;;;;;9.47;8.57;;;;;;;-143.84;61.06;45010.97;5088935;28;20489;-57
2023/06/15 04:55:26;;;;;;;9.53;8.73;;;;;;;-143.84;60.55;45010.97;5092257;28;20879;-57
2023/06/15 04:57:54;;;;;;;10.27;8.90;;;;;;;-143.84;59.89;45020.50;5091884;28;20544;-57
2023/06/15 05:00:21;;;;;;;11.33;9.40;;;;;;;-143.84;59.50;45014.78;5091794;28;20437;-57
2023/06/15 05:02:48;;;;;;;17.20;9.17;;;;;;;-143.84;61.50;45020.50;5091741;28;20432;-58
2023/06/15 05:05:16;;;;;;;9.43;8.63;;;;;;;-143.84;60.72;45026.22;5092040;28;20442;-58
2023/06/15 05:07:43;;;;;;;16.00;10.00;;;;;;;-143.84;59.97;45018.59;5091534;28;20809;-57
2023/06/15 05:10:11;;;;;;;14.10;12.47;;;;;;;-143.84;59.78;45009.09;5091866;28;20446;-56
2023/06/15 05:12:38;;;;;;;15.97;11.77;;;;;;;-143.84;59.80;45009.09;5091706;28;20960;-56
2023/06/15 05:15:06;;;;;;;29.97;22.20;;;;;;;-143.84;59.39;44999.56;5091327;28;20447;-56
2023/06/15 05:17:33;;;;;;;18.53;11.67;;;;;;;-143.84;58.63;45007.19;5091781;28;20482;-58
2023/06/15 05:20:01;;;;;;;17.13;11.20;;;;;;;-143.84;59.77;44995.75;5091465;28;20450;-57
2023/06/15 05:22:28;;;;;;;11.00;10.00;;;;;;;-143.84;58.42;45016.69;5091612;28;20459;-57
2023/06/15 05:24:55;;;;;;;13.27;10.57;;;;;;;-143.84;59.63;44999.56;5091494;28;20505;-57
2023/06/15 05:27:23;;;;;;;15.13;9.80;;;;;;;-143.84;58.56;44999.56;5091413;28;20448;-57
2023/06/15 05:29:50;;;;;;;12.07;10.20;;;;;;;-143.84;58.23;45018.59;5091155;28;20445;-57
2023/06/15 05:32:17;;;;;;;10.73;9.63;;;;;;;-143.84;56.73;45005.28;5091120;28;20581;-57
2023/06/15 05:34:44;;;;;;;17.27;10.43;;;;;;;-143.84;57.11;44999.56;5091335;28;20467;-57
2023/06/15 05:37:12;;;;;;;14.43;9.90;;;;;;;-143.84;57.72;45010.97;5091030;28;20482;-57
2023/06/15 05:39:39;;;;;;;11.17;9.00;;;;;;;-143.84;57.31;45009.09;5091028;28;20439;-57
2023/06/15 05:42:07;;;;;;;12.07;9.80;;;;;;;-143.84;58.96;45001.47;5090960;28;20477;-57
2023/06/15 05:44:36;;;;;;;10.53;9.63;;;;;;;-143.84;56.72;44991.94;5091017;28;21022;-57
2023/06/15 05:47:03;;;;;;;16.50;10.33;;;;;;;-143.84;57.76;45020.50;5090976;28;20449;-57
2023/06/15 05:49:30;;;;;;;20.33;11.70;;;;;;;-143.84;57.93;45016.69;5090818;28;20526;-57
2023/06/15 05:51:57;;;;;;;17.73;11.97;;;;;;;-143.84;59.01;45035.75;5090704;28;20462;-57
2023/06/15 05:54:25;;;;;;;16.60;12.33;;;;;;;-143.84;58.47;45014.78;5090792;28;20471;-57
2023/06/15 05:56:52;;;;;;;20.70;13.50;;;;;;;-143.84;60.25;45030.03;5090553;28;20486;-57
2023/06/15 05:59:19;;;;;;;14.87;13.00;;;;;;;-143.84;61.92;45016.69;5089608;28;20450;-56
2023/06/15 06:01:48;;;;;;;16.43;11.23;;;;;;;-143.84;61.84;45005.28;5089600;28;20451;-57
2023/06/15 06:04:15;;;;;;;17.70;12.27;;;;;;;-143.84;59.01;45020.50;5089802;28;20441;-57
2023/06/15 06:06:42;;;;;;;13.77;12.27;;;;;;;-143.84;59.47;45007.19;5089802;28;20792;-57
2023/06/15 06:09:09;;;;;;;14.80;12.70;;;;;;;-143.84;59.21;45026.22;5089639;28;20440;-57
2023/06/15 06:11:36;;;;;;;16.33;11.90;;;;;;;-143.84;60.08;45012.88;5090151;28;20460;-57
2023/06/15 06:14:03;;;;;;;16.53;11.20;;;;;;;-143.84;60.06;45020.50;5090608;28;20836;-56
2023/06/15 06:16:30;;;;;;;14.60;10.63;;;;;;;-143.84;59.30;45012.88;5090199;28;20499;-57
2023/06/15 06:18:59;;;;;;;13.33;10.17;;;;;;;-143.84;58.96;45024.31;5090515;28;20433;-57
2023/06/15 06:21:26;;;;;;;27.13;12.00;;;;;;;-143.84;57.42;44990.03;5090330;28;20446;-57
2023/06/15 06:23:54;;;;;;;15.93;12.00;;;;;;;-143.84;57.17;44993.84;5090417;28;20473;-57
2023/06/15 06:26:21;;;;;;;12.57;11.37;;;;;;;-143.84;57.59;44984.31;5090223;28;20444;-57
2023/06/15 06:28:48;;;;;;;18.73;11.47;;;;;;;-143.84;57.63;44991.94;5089895;28;20440;-57
2023/06/15 06:31:15;;;;;;;12.13;10.90;;;;;;;-143.84;55.63;45005.28;5090037;28;20534;-57
2023/06/15 06:33:42;;;;;;;10.73;9.63;;;;;;;-143.84;54.72;44969.09;5090145;28;21180;-57
2023/06/15 06:36:11;;;;;;;11.87;10.67;;;;;;;-143.84;56.06;45001.47;5089904;28;20501;-57
2023/06/15 06:38:38;;;;;;;10.60;9.60;;;;;;;-143.84;53.90;44976.72;5090171;28;20448;-57
2023/06/15 06:41:05;;;;;;;11.37;9.73;;;;;;;-143.84;55.26;45009.09;5090181;28;20448;-57
2023/06/15 06:43:32;;;;;;;18.57;15.63;;;;;;;-143.84;55.80;44997.66;5090073;28;21189;-57
2023/06/15 06:46:00;;;;;;;28.97;21.47;;;;;;;-143.84;55.98;45003.38;5089980;28;20435;-57
2023/06/15 06:48:27;;;;;;;21.30;15.90;;;;;;;-143.84;57.11;44969.09;5090103;28;20444;-57
2023/06/15 06:50:57;;;;;;;13.10;11.77;;;;;;;-143.84;55.62;44999.56;5089910;28;20440;-57
2023/06/15 06:53:26;;;;;;;16.03;11.90;;;;;;;-143.84;55.09;44993.84;5089612;28;20440;-56
2023/06/15 06:55:53;;;;;;;15.47;12.20;;;;;;;-143.84;57.68;45012.88;5089674;28;20456;-57
2023/06/15 06:58:20;;;;;;;12.30;11.17;;;;;;;-143.84;57.91;45030.03;5089665;28;20479;-57
2023/06/15 07:00:47;;;;;;;10.50;9.60;;;;;;;-143.84;58.59;45010.97;5089582;28;20922;-57
2023/06/15 07:03:15;;;;;;;10.03;9.07;;;;;;;-143.84;61.16;44993.84;5089393;28;20481;-57
2023/06/15 07:05:42;;;;;;;8.73;7.80;;;;;;;-143.84;59.36;45003.38;5089578;28;20443;-57
2023/06/15 07:08:09;;;;;;;9.13;8.00;;;;;;;-143.84;59.94;45010.97;5089389;28;20444;-58
2023/06/15 07:10:37;;;;;;;14.93;8.67;;;;;;;-143.84;63.00;45020.50;5089630;28;20938;-57
2023/06/15 07:13:05;;;;;;;10.37;8.43;;;;;;;-143.84;58.76;45022.41;5089361;28;20444;-57
2023/06/15 07:15:32;;;;;;;9.63;8.00;;;;;;;-143.84;58.76;45016.69;5088608;28;20488;-57
2023/06/15 07:17:59;;;;;;;13.83;8.03;;;;;;;-143.84;58.87;45005.28;5089268;28;21043;-57
2023/06/15 07:20:26;;;;;;;9.20;7.60;;;;;;;-143.84;56.38;44991.94;5089357;28;20498;-57
2023/06/15 07:22:53;;;;;;;7.13;6.53;;;;;;;-143.84;55.51;45005.28;5089204;28;20451;-57
2023/06/15 07:25:21;;;;;;;9.33;7.20;;;;;;;-143.84;56.40;45003.38;5089632;28;20808;-57
2023/06/15 07:27:49;;;;;;;10.10;8.10;;;;;;;-143.84;56.28;44976.72;5089212;28;20435;-56
2023/06/15 07:30:16;;;;;;;9.07;7.50;;;;;;;-143.84;58.04;44990.03;5089261;28;20504;-56
2023/06/15 07:32:43;;;;;;;12.57;7.63;;;;;;;-143.84;56.15;45012.88;5089077;28;20448;-56
2023/06/15 07:35:11;;;;;;;10.20;8.10;;;;;;;-143.84;57.81;45012.88;5089068;28;20428;-57
2023/06/15 07:37:38;;;;;;;8.60;6.90;;;;;;;-143.84;57.18;45003.38;5089121;28;21002;-57
2023/06/15 07:40:06;;;;;;;7.13;6.50;;;;;;;-143.84;55.80;44978.63;5088937;28;20444;-56
2023/06/15 07:42:33;;;;;;;8.17;7.40;;;;;;;-143.84;57.33;44999.56;5089215;28;20437;-57
2023/06/15 07:45:02;;;;;;;7.77;7.00;;;;;;;-143.84;57.85;44988.13;5088920;28;20504;-57
2023/06/15 07:47:29;;;;;;;7.93;7.17;;;;;;;-143.84;56.48;44990.03;5089209;28;20884;-57
2023/06/15 07:49:56;;;;;;;8.70;7.60;;;;;;;-143.84;58.56;44993.84;5088909;28;20448;-58
2023/06/15 07:52:23;;;;;;;6.80;6.30;;;;;;;-143.84;58.61;45005.28;5088942;28;20443;-57
2023/06/15 07:54:50;;;;;;;8.37;7.37;;;;;;;-143.84;58.39;44995.75;5088694;28;20498;-57
2023/06/15 07:57:17;;;;;;;9.73;7.47;;;;;;;-143.84;57.33;45007.19;5088806;28;20977;-57
2023/06/15 07:59:44;;;;;;;10.23;6.87;;;;;;;-143.84;57.11;45005.28;5088993;28;20467;-57
2023/06/15 08:02:14;;;;;;;10.70;6.80;;;;;;;-143.84;58.56;44988.13;5088935;28;20559;-57
2023/06/15 08:04:41;;;;;;;7.10;6.57;;;;;;;-143.84;57.86;45022.41;5088657;28;20960;-57
2023/06/15 08:07:08;;;;;;;10.23;7.77;;;;;;;-143.84;58.47;44997.66;5088889;28;20944;-57
2023/06/15 08:09:35;;;;;;;9.17;6.23;;;;;;;-143.84;57.60;45001.47;5088611;28;20516;-57
2023/06/15 08:12:03;;;;;;;7.77;7.17;;;;;;;-143.84;59.90;45020.50;5088658;28;20957;-57
2023/06/15 08:14:30;;;;;;;13.90;7.97;;;;;;;-143.84;64.37;45001.47;5088770;28;20440;-56
2023/06/15 08:16:57;;;;;;;7.90;7.10;;;;;;;-143.84;60.50;44980.53;5088398;28;20498;-56
2023/06/15 08:19:25;;;;;;;7.87;7.10;;;;;;;-143.84;63.34;45018.59;5088826;28;20921;-57
2023/06/15 08:21:52;;;;;;;7.63;6.90;;;;;;;-143.84;62.30;45016.69;5088984;28;20438;-57
2023/06/15 08:24:20;;;;;;;9.80;7.90;;;;;;;-143.84;61.95;45030.03;5088672;28;20448;-57
2023/06/15 08:26:48;;;;;;;7.67;7.00;;;;;;;-143.84;61.16;45001.47;5089078;28;20432;-56
2023/06/15 08:29:15;;;;;;;11.13;7.83;;;;;;;-143.84;62.63;45014.78;5092656;28;20442;-56
2023/06/15 08:31:42;;;;;;;7.23;6.33;;;;;;;-143.84;59.76;45041.44;5092478;28;20880;-56
2023/06/15 08:34:12;;;;;;;8.23;7.17;;;;;;;-143.84;62.14;45020.50;5092842;28;20453;-57
2023/06/15 08:36:41;;;;;;;7.17;6.57;;;;;;;-143.84;62.47;45022.41;5092466;28;20879;-57
2023/06/15 08:39:11;;;;;;;17.30;7.80;;;;;;;-143.84;63.28;45007.19;5092180;28;20480;-57
2023/06/15 08:41:41;;;;;;;8.30;7.10;;;;;;;-143.84;62.44;45022.41;5092449;28;20449;-57
2023/06/15 08:44:08;;;;;;;8.60;7.80;;;;;;;-143.84;63.35;45039.53;5092083;28;20446;-56
2023/06/15 08:46:36;;;;;;;9.90;6.63;;;;;;;-143.84;63.25;45018.59;5092360;28;20440;-56
2023/06/15 08:49:04;;;;;;;8.10;7.40;;;;;;;-143.84;61.06;45010.97;5092061;28;20428;-56
2023/06/15 08:51:31;;;;;;;13.37;6.83;;;;;;;-143.84;62.57;45018.59;5091959;28;20513;-57
2023/06/15 08:54:00;;;;;;;7.03;6.53;;;;;;;-143.84;59.75;44984.31;5091861;28;20493;-56
2023/06/15 08:56:27;;;;;;;7.43;6.60;;;;;;;-143.84;60.35;44997.66;5091867;28;20439;-57
2023/06/15 08:58:54;;;;;;;9.00;8.10;;;;;;;-143.84;60.58;45014.78;5091778;28;20575;-56
2023/06/15 09:01:23;;;;;;;7.70;6.70;;;;;;;-143.84;61.70;45003.38;5091926;28;20440;-56
2023/06/15 09:03:53;;;;;;;6.90;5.83;;;;;;;-143.84;61.01;44999.56;5091666;28;20440;-56
2023/06/15 09:06:21;;;;;;;9.33;6.90;;;;;;;-143.84;62.84;45022.41;5091685;28;20444;-56
2023/06/15 09:08:48;;;;;;;10.20;7.20;;;;;;;-143.84;64.75;45014.78;5091982;28;20506;-56
2023/06/15 09:11:18;;;;;;;10.80;7.20;;;;;;;-143.84;64.22;45009.09;5091993;28;20440;-56
2023/06/15 09:13:45;;;;;;;7.60;7.00;;;;;;;-143.84;64.01;45001.47;5091659;28;20984;-56
2023/06/15 09:16:12;;;;;;;10.73;7.80;;;;;;;-143.84;65.83;45014.78;5091205;28;20553;-56
2023/06/15 09:18:44;;;;;;;9.30;7.77;;;;;;;-143.84;64.91;45031.94;5091452;28;20529;-56
2023/06/15 09:21:15;;;;;;;8.57;7.10;;;;;;;-143.84;66.37;45024.31;5091360;28;20440;-56
2023/06/15 09:23:44;;;;;;;7.90;7.20;;;;;;;-143.84;67.06;45033.84;5091365;28;20495;-56
2023/06/15 09:26:22;;;;;;;7.93;6.63;;;;;;;-143.84;67.43;45018.59;5091349;28;20447;-56
2023/06/15 09:28:52;;;;;;;11.60;6.83;;;;;;;-143.84;66.39;45030.03;5091346;28;20447;-56
2023/06/15 09:31:32;;;;;;;9.90;6.60;;;;;;;-143.84;64.22;45031.94;5091208;28;20506;-56
2023/06/15 09:37:19;;;;;;;8.50;7.57;;;;;;;-143.84;65.84;45054.78;4993356;28;20472;-56
2023/06/15 09:39:46;;;;;;;7.03;6.30;;;;;;;-143.84;64.22;44990.03;5081886;28;20444;-56
2023/06/15 09:42:14;;;;;;;6.70;6.20;;;;;;;-143.84;63.96;45047.16;5091057;28;20441;-56
2023/06/15 09:44:43;;;;;;;6.70;6.13;;;;;;;-143.84;64.89;45031.94;5091137;28;20452;-56
2023/06/15 09:47:17;;;;;;;7.57;6.80;;;;;;;-143.84;65.30;45026.22;5090937;28;20448;-56
2023/06/15 09:49:45;;;;;;;11.23;7.67;;;;;;;-143.84;66.02;45020.50;5091093;28;20441;-56
2023/06/15 09:52:13;;;;;;;8.20;7.50;;;;;;;-143.84;66.31;45030.03;5090785;28;20448;-56
2023/06/15 09:54:40;;;;;;;10.90;7.33;;;;;;;-143.84;67.64;45033.84;5091015;28;20444;-56
2023/06/15 09:57:09;;;;;;;8.60;7.20;;;;;;;-143.84;65.69;45039.53;5090786;28;20439;-56
2023/06/15 09:59:38;;;;;;;11.60;6.90;;;;;;;-143.84;66.06;45022.41;5090952;28;20482;-56
2023/06/15 10:02:11;;;;;;;11.83;8.50;;;;;;;-143.84;64.82;45033.84;5090628;28;20444;-56
2023/06/15 10:04:40;;;;;;;11.23;7.10;;;;;;;-143.84;65.96;45012.88;5090434;28;20448;-56
2023/06/15 10:07:12;;;;;;;11.17;7.53;;;;;;;-143.84;65.67;45037.66;5090520;28;20443;-57
2023/06/15 10:09:42;;;;;;;11.40;8.07;;;;;;;-143.84;65.88;45030.03;5090571;28;20444;-56
2023/06/15 10:12:13;;;;;;;8.60;7.57;;;;;;;-143.84;66.91;45024.31;5090623;28;20510;-56
2023/06/15 10:14:51;;;;;;;9.00;8.10;;;;;;;-143.84;69.41;45028.13;5090662;28;20523;-55
2023/06/15 10:17:23;;;;;;;26.53;14.37;;;;;;;-143.84;67.13;45022.41;5090316;28;20479;-56
2023/06/15 10:19:54;;;;;;;9.17;8.27;;;;;;;-143.84;68.00;45031.94;5090519;28;20457;-57
2023/06/15 10:22:39;;;;;;;11.10;8.20;;;;;;;-143.84;70.04;45022.41;5090195;28;20433;-57
2023/06/15 10:25:45;;;;;;;11.30;8.03;;;;;;;-143.84;68.55;45028.13;5090057;28;20509;-56
2023/06/15 10:28:16;;;;;;;9.33;6.90;;;;;;;-143.84;67.76;45043.34;5077962;28;20831;-56
2023/06/15 10:30:52;;;;;;;8.20;7.50;;;;;;;-143.84;68.86;45022.41;5089255;28;20452;-56
2023/06/15 10:33:26;;;;;;;9.50;7.77;;;;;;;-143.84;68.43;45043.34;5089669;28;20487;-56
2023/06/15 10:35:59;;;;;;;10.50;7.80;;;;;;;-143.84;69.89;45031.94;5089068;28;20448;-57
2023/06/15 10:38:33;;;;;;;8.97;7.17;;;;;;;-143.84;68.39;45026.22;5089311;28;20862;-56
2023/06/15 10:41:01;;;;;;;12.40;7.80;;;;;;;-143.84;71.03;45033.84;5089635;28;20440;-56
2023/06/15 10:43:28;;;;;;;10.23;8.30;;;;;;;-143.84;69.04;45024.31;5089895;28;20436;-56
2023/06/15 10:45:57;;;;;;;8.93;8.03;;;;;;;-143.84;69.09;45033.84;5089826;28;20948;-56
2023/06/15 10:48:26;;;;;;;14.20;7.43;;;;;;;-143.84;67.90;45018.59;5089624;28;20451;-56
2023/06/15 10:51:03;;;;;;;7.40;6.70;;;;;;;-143.84;70.53;45043.34;5089990;28;21174;-56
2023/06/15 10:53:36;;;;;;;10.53;7.97;;;;;;;-143.84;70.46;45014.78;5089753;28;20531;-57
2023/06/15 11:01:57;;;;;;;10.67;9.43;;;;;;;-143.84;70.61;45009.09;5080350;28;20447;-56
2023/06/15 11:04:51;;;;;;;8.47;7.67;;;;;;;-143.84;73.75;45035.75;5089599;28;20443;-56
2023/06/15 11:07:40;;;;;;;;;;;;;;;;;;;;;
2023/06/15 11:10:13;;;;;;;9.47;8.33;;;;;;;-143.84;70.29;45030.03;5089241;28;20455;-57
2023/06/15 11:12:41;;;;;;;22.40;8.17;;;;;;;-143.84;69.66;45079.53;5089283;28;20497;-57
2023/06/15 11:15:10;;;;;;;12.70;7.47;;;;;;;-143.84;70.74;45033.84;5089483;28;20512;-57
2023/06/15 11:18:00;;;;;;;15.33;8.50;;;;;;;-143.84;70.61;45018.59;5089270;28;20440;-56
2023/06/15 11:20:59;;;;;;;8.90;8.00;;;;;;;-143.84;71.01;45020.50;5089737;28;20451;-57
2023/06/15 11:23:31;;;;;;;12.40;8.10;;;;;;;-143.84;73.53;45026.22;5089372;28;20434;-56
2023/06/15 11:26:01;;;;;;;10.73;8.30;;;;;;;-143.84;74.16;45022.41;5089195;28;20526;-56
2023/06/15 11:28:31;;;;;;;28.40;11.00;;;;;;;-143.84;75.21;45030.03;5089152;28;20944;-56